Time;durP1;ratioP1;P1;durP2;ratioP2;P2;SDS_P1;SDS_P2;PMS_P1;PMS_P2;Temp;Humidity;BMP_temperature;BMP_pressure;BME280_temperature;BME280_humidity;BME280_pressure;Samples;Min_cycle;Max_cycle;Signal;HPM_P1;HPM_P2
2023/07/11 00:00:47;;;;;;;7.28;2.97;;;21.20;93.70;;;;;;4963884;28;20498;-78
2023/07/11 00:03:13;;;;;;;6.13;3.65;;;21.20;93.90;;;;;;4956090;28;20018;-79
2023/07/11 00:05:39;;;;;;;11.35;3.80;;;21.10;93.90;;;;;;4963956;28;20538;-78
2023/07/11 00:08:05;;;;;;;10.55;3.47;;;21.10;94.00;;;;;;4965136;28;20031;-78
2023/07/11 00:10:31;;;;;;;7.88;3.72;;;21.10;94.00;;;;;;4962386;28;20026;-79
2023/07/11 00:12:56;;;;;;;9.52;3.50;;;21.10;94.20;;;;;;4963440;28;20027;-79
2023/07/11 00:15:22;;;;;;;9.07;3.40;;;21.00;94.20;;;;;;4964786;28;20106;-78
2023/07/11 00:17:48;;;;;;;11.23;3.97;;;21.00;94.30;;;;;;4961514;28;20057;-79
2023/07/11 00:20:15;;;;;;;9.98;2.97;;;21.00;94.30;;;;;;4963222;28;20027;-79
2023/07/11 00:22:42;;;;;;;7.95;3.40;;;20.90;94.40;;;;;;4961458;28;20570;-79
2023/07/11 00:25:11;;;;;;;8.65;3.10;;;20.90;94.50;;;;;;4965004;28;20490;-79
2023/07/11 00:27:37;;;;;;;9.27;3.08;;;20.80;94.50;;;;;;4962232;28;20150;-78
2023/07/11 00:30:05;;;;;;;6.53;3.17;;;20.80;94.70;;;;;;4962315;28;20490;-78
2023/07/11 00:32:30;;;;;;;7.53;3.42;;;20.80;94.80;;;;;;4964974;28;20039;-79
2023/07/11 00:34:56;;;;;;;9.90;3.40;;;20.80;94.90;;;;;;4964583;28;20038;-78
2023/07/11 00:37:22;;;;;;;12.07;3.72;;;20.70;94.80;;;;;;4962760;28;20042;-78
2023/07/11 00:39:48;;;;;;;7.25;3.35;;;20.70;94.70;;;;;;4969438;28;20374;-79
2023/07/11 00:42:13;;;;;;;8.50;3.20;;;20.70;94.90;;;;;;4958691;28;20075;-79
2023/07/11 00:45:04;;;;;;;5.20;3.28;;;20.70;95.00;;;;;;4962464;28;20062;-79
2023/07/11 00:47:30;;;;;;;7.93;3.05;;;20.70;95.00;;;;;;4961072;28;20390;-78
2023/07/11 00:50:04;;;;;;;11.43;3.63;;;20.70;94.90;;;;;;4960810;28;20026;-78
2023/07/11 00:52:31;;;;;;;8.40;3.38;;;20.60;95.00;;;;;;4962286;28;20030;-78
2023/07/11 00:55:02;;;;;;;8.05;3.20;;;20.60;95.00;;;;;;4963963;28;20155;-78
2023/07/11 00:57:32;;;;;;;7.95;3.58;;;20.60;95.20;;;;;;4963467;28;20658;-79
2023/07/11 00:59:58;;;;;;;6.05;2.97;;;20.60;95.30;;;;;;4964126;28;20286;-78
2023/07/11 01:02:28;;;;;;;7.25;3.22;;;20.60;95.30;;;;;;4965546;28;20019;-78
2023/07/11 01:04:54;;;;;;;8.63;3.40;;;20.50;95.40;;;;;;4962559;28;20070;-79
2023/07/11 01:07:29;;;;;;;11.70;3.83;;;20.50;95.30;;;;;;4961298;28;20361;-78
2023/07/11 01:09:55;;;;;;;8.00;3.17;;;20.50;95.40;;;;;;4964089;28;20118;-78
2023/07/11 01:12:23;;;;;;;7.38;2.85;;;20.50;95.50;;;;;;4963974;28;20114;-78
2023/07/11 01:14:50;;;;;;;10.18;3.40;;;20.40;95.70;;;;;;4965447;28;20027;-78
2023/07/11 01:17:24;;;;;;;8.88;3.17;;;20.40;95.80;;;;;;4963215;28;20392;-78
2023/07/11 01:19:50;;;;;;;6.10;3.35;;;20.40;95.70;;;;;;4964968;28;20435;-78
2023/07/11 01:22:16;;;;;;;6.72;3.35;;;20.40;96.20;;;;;;4961945;28;20026;-79
2023/07/11 01:24:42;;;;;;;6.32;3.67;;;20.30;95.80;;;;;;4964635;28;20035;-78
2023/07/11 01:27:08;;;;;;;6.18;3.10;;;20.30;95.90;;;;;;4963631;28;20027;-79
2023/07/11 01:29:36;;;;;;;8.15;3.33;;;20.30;96.00;;;;;;4961325;28;20034;-78
2023/07/11 01:32:02;;;;;;;10.48;3.60;;;20.20;96.10;;;;;;4965248;28;20039;-79
2023/07/11 01:34:28;;;;;;;6.68;3.50;;;20.20;96.20;;;;;;4960952;28;20038;-78
2023/07/11 01:36:56;;;;;;;6.53;2.75;;;20.20;96.20;;;;;;4964034;28;20270;-79
2023/07/11 01:39:21;;;;;;;6.85;2.95;;;20.20;96.20;;;;;;4963085;28;20383;-78
2023/07/11 01:41:47;;;;;;;8.55;3.70;;;20.20;96.10;;;;;;4962562;28;20045;-79
2023/07/11 01:44:15;;;;;;;6.45;3.10;;;20.20;96.10;;;;;;4962796;28;20197;-78
2023/07/11 01:46:41;;;;;;;5.55;3.05;;;20.20;95.90;;;;;;4961893;28;20397;-79
2023/07/11 01:49:06;;;;;;;8.73;3.05;;;20.30;95.90;;;;;;4964130;28;20106;-78
2023/07/11 01:51:32;;;;;;;6.15;3.42;;;20.20;95.70;;;;;;4962249;28;20022;-79
2023/07/11 01:53:58;;;;;;;6.15;3.55;;;20.20;95.70;;;;;;4961727;28;20064;-78
2023/07/11 01:56:23;;;;;;;9.60;3.60;;;20.20;95.70;;;;;;4962048;28;20554;-78
2023/07/11 01:58:49;;;;;;;7.88;3.33;;;20.20;95.70;;;;;;4971642;28;20041;-78
2023/07/11 02:01:15;;;;;;;5.10;3.25;;;20.20;95.80;;;;;;4964038;28;20031;-79
2023/07/11 02:03:40;;;;;;;10.18;3.33;;;20.20;95.80;;;;;;4961260;28;20038;-78
2023/07/11 02:06:06;;;;;;;8.65;3.78;;;20.20;95.70;;;;;;4970788;28;20027;-78
2023/07/11 02:08:33;;;;;;;5.70;3.00;;;20.10;96.00;;;;;;4976690;28;20418;-79
2023/07/11 02:10:59;;;;;;;8.18;3.45;;;20.00;96.10;;;;;;4960207;28;20019;-78
2023/07/11 02:13:25;;;;;;;10.40;3.70;;;20.00;96.30;;;;;;4959562;28;20107;-79
2023/07/11 02:15:50;;;;;;;13.43;3.72;;;20.00;96.20;;;;;;4959384;28;20023;-79
2023/07/11 02:18:23;;;;;;;10.00;3.28;;;20.00;96.20;;;;;;5089903;27;1263624;-78
2023/07/11 02:20:49;;;;;;;9.43;3.53;;;20.00;96.20;;;;;;5115138;27;20570;-78
2023/07/11 02:23:15;;;;;;;5.60;3.28;;;20.00;96.40;;;;;;5116203;28;20019;-78
2023/07/11 02:25:41;;;;;;;7.18;3.15;;;19.90;96.30;;;;;;5113004;28;20462;-78
2023/07/11 02:28:07;;;;;;;8.63;3.00;;;19.90;96.20;;;;;;5115705;27;20054;-78
2023/07/11 02:30:33;;;;;;;11.02;3.08;;;19.90;96.00;;;;;;5114973;28;20020;-77
2023/07/11 02:32:59;;;;;;;7.32;3.25;;;20.00;96.00;;;;;;5112755;27;20582;-78
2023/07/11 02:35:25;;;;;;;10.43;3.33;;;20.00;95.90;;;;;;5114843;28;20030;-78
2023/07/11 02:37:51;;;;;;;6.70;3.13;;;20.10;95.80;;;;;;5110509;28;20040;-78
2023/07/11 02:40:18;;;;;;;9.20;2.88;;;20.00;95.80;;;;;;5115699;27;20031;-78
2023/07/11 02:42:44;;;;;;;7.85;3.03;;;20.10;95.70;;;;;;5112523;27;20178;-78
2023/07/11 02:45:11;;;;;;;12.00;2.88;;;20.10;95.70;;;;;;5115443;28;20119;-78
2023/07/11 02:47:37;;;;;;;4.22;2.83;;;20.10;95.70;;;;;;5111052;28;20019;-76
2023/07/11 02:50:03;;;;;;;8.85;2.70;;;20.10;95.40;;;;;;5112328;28;20118;-77
2023/07/11 02:52:28;;;;;;;8.48;3.33;;;20.10;95.10;;;;;;5116368;27;20053;-77
2023/07/11 02:54:54;;;;;;;7.82;3.60;;;20.10;95.30;;;;;;5116124;28;20137;-77
2023/07/11 02:57:20;;;;;;;11.43;3.60;;;20.20;95.20;;;;;;5115209;28;20042;-77
2023/07/11 02:59:46;;;;;;;9.00;3.35;;;20.10;95.20;;;;;;5113661;28;20028;-77
2023/07/11 03:02:11;;;;;;;6.90;3.28;;;20.20;95.30;;;;;;5110628;28;20387;-77
2023/07/11 03:04:42;;;;;;;8.02;3.60;;;20.10;95.20;;;;;;5111993;28;20065;-77
2023/07/11 03:07:07;;;;;;;6.47;3.67;;;20.10;95.20;;;;;;5114753;28;20031;-77
2023/07/11 03:09:34;;;;;;;6.60;3.58;;;20.10;95.30;;;;;;5112333;28;20019;-77
2023/07/11 03:12:00;;;;;;;11.27;3.75;;;20.10;95.60;;;;;;5115787;27;20023;-77
2023/07/11 03:14:26;;;;;;;6.38;3.38;;;20.10;95.40;;;;;;5113130;27;20027;-77
2023/07/11 03:16:52;;;;;;;9.13;3.58;;;20.10;95.40;;;;;;5112415;28;20373;-76
2023/07/11 03:19:21;;;;;;;9.25;3.35;;;20.00;95.50;;;;;;5113918;28;20035;-77
2023/07/11 03:21:48;;;;;;;8.48;3.35;;;20.00;95.60;;;;;;5113285;28;20027;-78
2023/07/11 03:24:14;;;;;;;6.63;3.15;;;20.00;95.90;;;;;;5112533;28;20027;-76
2023/07/11 03:26:39;;;;;;;10.60;3.13;;;19.90;95.60;;;;;;5109929;28;20023;-76
2023/07/11 03:29:05;;;;;;;6.75;2.83;;;19.90;95.60;;;;;;5104051;27;20520;-76
2023/07/11 03:31:31;;;;;;;11.20;3.42;;;19.80;95.70;;;;;;5100608;28;20027;-76
2023/07/11 03:33:56;;;;;;;7.05;3.13;;;19.80;95.80;;;;;;5102372;28;20016;-76
2023/07/11 03:36:22;;;;;;;11.13;2.88;;;19.80;96.10;;;;;;5101039;28;20324;-76
2023/07/11 03:38:48;;;;;;;7.60;3.10;;;19.90;95.70;;;;;;5098609;28;20086;-76
2023/07/11 03:41:13;;;;;;;6.25;3.22;;;19.80;95.70;;;;;;5100620;27;20015;-77
2023/07/11 03:43:39;;;;;;;5.90;3.35;;;19.80;95.80;;;;;;5098959;28;20074;-76
2023/07/11 03:46:05;;;;;;;9.70;3.22;;;19.90;95.60;;;;;;5101427;28;20020;-76
2023/07/11 03:48:30;;;;;;;11.70;3.50;;;19.90;95.60;;;;;;5095749;28;20027;-76
2023/07/11 03:50:56;;;;;;;11.00;3.45;;;20.00;95.40;;;;;;5100860;28;20028;-76
2023/07/11 03:53:23;;;;;;;8.32;2.90;;;20.00;95.30;;;;;;5096012;28;20026;-77
2023/07/11 03:55:49;;;;;;;4.15;2.67;;;20.10;95.40;;;;;;5096493;28;20031;-77
2023/07/11 03:58:15;;;;;;;7.15;3.08;;;20.10;95.30;;;;;;5095354;28;20157;-77
2023/07/11 04:00:40;;;;;;;6.88;3.13;;;20.20;95.30;;;;;;5099378;28;20035;-77
2023/07/11 04:03:06;;;;;;;9.77;3.25;;;20.20;95.10;;;;;;5100162;28;20111;-76
2023/07/11 04:05:32;;;;;;;7.97;3.45;;;20.20;95.10;;;;;;5100733;28;20015;-76
2023/07/11 04:07:57;;;;;;;6.30;3.40;;;20.30;95.10;;;;;;5096293;28;20046;-76
2023/07/11 04:10:23;;;;;;;10.40;3.60;;;20.30;94.90;;;;;;5095811;28;21185;-78
2023/07/11 04:12:50;;;;;;;12.38;3.50;;;20.40;94.80;;;;;;5093778;28;20019;-76
2023/07/11 04:15:16;;;;;;;6.88;3.15;;;20.40;94.70;;;;;;5095760;28;20532;-77
2023/07/11 04:17:42;;;;;;;7.32;3.35;;;20.50;94.60;;;;;;5110796;28;20130;-78
2023/07/11 04:20:08;;;;;;;6.57;3.38;;;20.60;94.60;;;;;;5106339;28;20038;-77
2023/07/11 04:22:34;;;;;;;10.45;3.28;;;20.60;94.50;;;;;;5100415;28;20020;-78
2023/07/11 04:24:59;;;;;;;9.50;3.45;;;20.70;94.50;;;;;;5097981;28;20026;-77
2023/07/11 04:27:25;;;;;;;6.45;3.10;;;20.70;94.30;;;;;;5098122;28;20028;-77
2023/07/11 04:29:51;;;;;;;7.82;3.17;;;20.80;94.20;;;;;;5092230;28;20020;-77
2023/07/11 04:32:16;;;;;;;14.00;4.10;;;20.80;94.20;;;;;;5098505;28;20123;-77
2023/07/11 04:34:42;;;;;;;6.28;3.20;;;20.90;94.10;;;;;;5097249;28;20015;-78
2023/07/11 04:37:10;;;;;;;9.10;3.83;;;21.00;94.00;;;;;;5098680;28;20590;-78
2023/07/11 04:39:38;;;;;;;9.23;4.00;;;21.00;94.00;;;;;;5094128;28;20059;-80
2023/07/11 04:42:04;;;;;;;12.57;3.58;;;21.10;93.90;;;;;;5048984;28;20098;-79
2023/07/11 04:44:29;;;;;;;10.38;3.45;;;21.10;93.80;;;;;;5032291;28;20033;-79
2023/07/11 04:47:00;;;;;;;8.63;3.20;;;21.20;93.60;;;;;;5035498;28;20423;-80
2023/07/11 04:49:26;;;;;;;5.65;2.75;;;21.30;93.70;;;;;;5037048;28;20036;-80
2023/07/11 04:51:54;;;;;;;20.17;3.67;;;21.40;93.60;;;;;;5037949;28;20133;-81
2023/07/11 04:54:19;;;;;;;9.23;3.90;;;21.40;93.30;;;;;;5038941;28;20033;-80
2023/07/11 04:56:54;;;;;;;13.50;4.22;;;21.50;93.40;;;;;;5036908;28;20044;-79
2023/07/11 04:59:20;;;;;;;10.70;4.07;;;21.60;93.20;;;;;;5038630;28;20025;-80
2023/07/11 05:01:50;;;;;;;10.68;4.20;;;21.70;93.00;;;;;;5037606;28;20070;-80
2023/07/11 05:04:16;;;;;;;7.85;3.60;;;21.70;92.70;;;;;;5035554;28;20094;-80
2023/07/11 05:06:42;;;;;;;13.13;4.18;;;21.80;92.70;;;;;;5037123;28;20025;-79
2023/07/11 05:09:07;;;;;;;8.10;3.22;;;21.80;92.40;;;;;;5037889;28;20021;-78
2023/07/11 05:11:35;;;;;;;8.30;3.28;;;21.90;92.40;;;;;;5038319;28;20068;-78
2023/07/11 05:14:01;;;;;;;9.10;3.85;;;22.00;92.30;;;;;;5040450;28;20056;-81
2023/07/11 05:16:28;;;;;;;6.22;3.63;;;22.00;92.20;;;;;;5038073;28;20033;-80
2023/07/11 05:18:58;;;;;;;10.65;3.65;;;22.10;92.30;;;;;;5033529;28;20090;-77
2023/07/11 05:21:25;;;;;;;10.50;3.88;;;22.10;92.20;;;;;;5035553;28;20106;-80
2023/07/11 05:23:50;;;;;;;12.40;3.50;;;22.10;91.90;;;;;;5036030;28;20031;-80
2023/07/11 05:26:18;;;;;;;7.35;3.53;;;22.20;92.00;;;;;;5037178;28;20025;-79
2023/07/11 05:28:45;;;;;;;5.68;3.47;;;22.30;92.00;;;;;;5036822;28;20735;-79
2023/07/11 05:31:11;;;;;;;11.57;4.30;;;22.30;91.80;;;;;;5035474;28;20496;-77
2023/07/11 05:33:37;;;;;;;9.30;3.92;;;22.40;91.60;;;;;;5036447;28;20071;-77
2023/07/11 05:38:50;;;;;;;9.98;4.07;;;22.40;91.60;;;;;;5037586;28;20021;-80
2023/07/11 05:41:16;;;;;;;10.43;4.30;;;22.60;91.50;;;;;;5038821;28;20047;-76
2023/07/11 05:43:44;;;;;;;9.20;3.78;;;22.60;91.30;;;;;;5039256;28;20078;-79
2023/07/11 05:46:10;;;;;;;7.78;3.78;;;22.70;91.50;;;;;;5038620;28;20024;-77
2023/07/11 05:48:35;;;;;;;11.02;4.05;;;22.70;91.20;;;;;;5034801;28;20557;-77
2023/07/11 05:51:04;;;;;;;9.07;4.07;;;22.80;91.20;;;;;;5040540;28;20060;-76
2023/07/11 05:53:30;;;;;;;12.15;4.03;;;22.70;91.30;;;;;;5038920;28;20025;-78
2023/07/11 05:55:57;;;;;;;16.85;4.25;;;22.90;91.10;;;;;;5039085;28;20025;-77
2023/07/11 05:58:23;;;;;;;9.43;4.40;;;23.00;91.10;;;;;;5038875;28;20029;-78
2023/07/11 06:00:52;;;;;;;12.80;4.10;;;23.00;90.80;;;;;;5038267;28;20029;-79
2023/07/11 06:03:18;;;;;;;10.10;4.10;;;23.10;91.00;;;;;;5038424;28;20035;-80
2023/07/11 06:05:44;;;;;;;14.70;4.10;;;23.10;90.90;;;;;;5039148;28;20029;-79
2023/07/11 06:08:12;;;;;;;9.23;3.83;;;23.20;90.90;;;;;;5038595;28;20101;-78
2023/07/11 06:10:38;;;;;;;10.63;3.53;;;23.30;91.40;;;;;;5037703;28;20037;-76
2023/07/11 06:13:06;;;;;;;15.02;3.58;;;23.40;90.80;;;;;;5037159;28;20507;-77
2023/07/11 06:15:31;;;;;;;11.50;3.88;;;23.30;90.60;;;;;;5038306;28;20476;-76
2023/07/11 06:17:57;;;;;;;10.70;3.63;;;23.40;90.60;;;;;;5039222;28;20079;-76
2023/07/11 06:20:23;;;;;;;6.30;3.25;;;23.50;90.40;;;;;;5037453;28;20476;-77
2023/07/11 06:22:48;;;;;;;7.18;3.50;;;23.60;90.30;;;;;;5040770;28;20104;-77
2023/07/11 06:25:16;;;;;;;5.43;3.30;;;23.70;90.40;;;;;;5052983;28;20044;-75
2023/07/11 06:27:42;;;;;;;6.50;3.10;;;23.70;90.20;;;;;;5043189;28;20033;-77
2023/07/11 06:30:08;;;;;;;3.90;2.70;;;23.80;90.00;;;;;;5037639;28;20420;-78
2023/07/11 06:32:34;;;;;;;7.70;3.00;;;23.90;90.10;;;;;;5040984;28;20044;-76
2023/07/11 06:35:02;;;;;;;5.93;3.15;;;24.00;89.60;;;;;;5037966;28;20396;-76
2023/07/11 06:37:28;;;;;;;5.05;2.97;;;24.00;89.30;;;;;;5038653;28;20037;-77
2023/07/11 06:39:53;;;;;;;5.25;3.10;;;24.00;89.30;;;;;;5038219;28;20024;-76
2023/07/11 06:42:19;;;;;;;12.30;3.90;;;24.00;89.20;;;;;;5037707;28;20048;-78
2023/07/11 06:44:44;;;;;;;6.70;3.10;;;24.20;89.00;;;;;;5038989;28;20568;-77
2023/07/11 06:47:10;;;;;;;8.50;3.15;;;24.20;88.70;;;;;;5039053;28;20120;-76
2023/07/11 06:49:35;;;;;;;6.20;3.72;;;24.20;87.70;;;;;;5030495;28;21297;-76
2023/07/11 06:52:04;;;;;;;6.80;2.80;;;24.30;88.60;;;;;;5037162;28;20056;-77
2023/07/11 06:54:30;;;;;;;4.55;2.70;;;24.40;88.00;;;;;;5042792;28;20029;-79
2023/07/11 06:56:58;;;;;;;7.03;3.22;;;24.50;87.60;;;;;;5038238;28;20036;-77
2023/07/11 06:59:24;;;;;;;9.90;3.20;;;24.40;87.80;;;;;;5034418;28;20017;-77
2023/07/11 07:01:50;;;;;;;4.68;2.97;;;24.50;87.20;;;;;;5039879;28;20567;-79
2023/07/11 07:04:16;;;;;;;14.00;3.45;;;24.70;87.00;;;;;;5038905;28;20025;-77
2023/07/11 07:06:42;;;;;;;7.55;3.35;;;24.80;87.00;;;;;;5043796;28;20334;-77
2023/07/11 07:09:08;;;;;;;8.57;3.13;;;24.80;85.70;;;;;;5038199;28;20032;-78
2023/07/11 07:11:35;;;;;;;7.53;3.15;;;24.90;86.30;;;;;;5041779;28;20107;-82
2023/07/11 07:14:10;;;;;;;7.47;2.90;;;25.00;86.20;;;;;;5040641;28;20054;-79
2023/07/11 07:16:38;;;;;;;8.52;2.90;;;25.00;84.60;;;;;;5058724;28;20583;-78
2023/07/11 07:19:07;;;;;;;10.63;2.92;;;25.00;84.00;;;;;;5040748;28;20082;-79
2023/07/11 07:21:35;;;;;;;9.25;3.40;;;25.10;84.80;;;;;;5048763;28;20037;-79
2023/07/11 07:24:01;;;;;;;7.85;3.15;;;25.30;84.30;;;;;;5046618;28;20025;-78
2023/07/11 07:26:27;;;;;;;6.43;2.90;;;25.30;84.00;;;;;;5046259;28;20077;-79
2023/07/11 07:28:52;;;;;;;10.55;2.78;;;25.40;83.60;;;;;;5043719;28;20033;-78
2023/07/11 07:31:18;;;;;;;6.32;2.88;;;25.50;84.20;;;;;;5040925;28;20025;-77
2023/07/11 07:33:44;;;;;;;4.15;3.05;;;25.50;83.00;;;;;;5040920;28;20108;-78
2023/07/11 07:36:12;;;;;;;7.93;2.63;;;25.70;84.20;;;;;;5040083;28;20078;-79
2023/07/11 07:38:39;;;;;;;4.38;2.85;;;25.90;83.10;;;;;;5041826;28;20070;-78
2023/07/11 07:41:08;;;;;;;5.07;2.80;;;26.00;81.80;;;;;;5041773;28;20114;-78
2023/07/11 07:43:39;;;;;;;3.60;2.65;;;26.00;80.90;;;;;;5034531;28;20025;-79
2023/07/11 07:46:05;;;;;;;4.78;2.83;;;26.10;80.90;;;;;;5041939;28;20017;-79
2023/07/11 07:48:31;;;;;;;5.82;2.70;;;26.20;80.50;;;;;;5037951;28;20511;-81
2023/07/11 07:51:06;;;;;;;11.82;4.70;;;26.30;79.90;;;;;;5040429;28;20024;-80
2023/07/11 07:53:32;;;;;;;9.43;2.90;;;26.40;79.80;;;;;;5037647;28;20026;-78
2023/07/11 07:56:08;;;;;;;3.78;2.72;;;26.60;79.40;;;;;;5038936;28;20092;-78
2023/07/11 07:58:34;;;;;;;5.18;2.92;;;26.70;78.80;;;;;;5056797;28;20094;-78
2023/07/11 08:01:00;;;;;;;5.57;2.67;;;26.90;78.90;;;;;;5040979;28;20433;-78
2023/07/11 08:03:26;;;;;;;6.57;3.00;;;27.10;78.40;;;;;;5041980;28;20021;-78
2023/07/11 08:05:55;;;;;;;6.30;3.55;;;27.30;78.30;;;;;;5041100;28;20108;-76
2023/07/11 08:08:21;;;;;;;10.82;3.13;;;27.30;77.70;;;;;;5038685;28;20760;-79
2023/07/11 08:10:46;;;;;;;11.75;2.80;;;27.50;78.20;;;;;;5037529;28;20116;-76
2023/07/11 08:13:12;;;;;;;6.65;2.25;;;27.50;75.80;;;;;;5039795;28;20025;-76
2023/07/11 08:15:38;;;;;;;5.57;2.60;;;27.50;76.10;;;;;;5040433;28;20342;-76
2023/07/11 08:18:03;;;;;;;7.53;3.05;;;27.70;76.00;;;;;;5041928;28;20104;-77
2023/07/11 08:20:29;;;;;;;5.88;2.90;;;27.80;75.30;;;;;;5043575;28;20056;-78
2023/07/11 08:22:54;;;;;;;4.78;3.22;;;27.80;75.00;;;;;;5046506;28;20205;-77
2023/07/11 08:25:20;;;;;;;5.20;2.80;;;27.90;75.20;;;;;;5047975;28;20029;-79
2023/07/11 08:27:46;;;;;;;7.82;3.28;;;28.20;75.70;;;;;;5040805;28;20360;-79
2023/07/11 08:30:11;;;;;;;6.28;3.15;;;28.50;75.10;;;;;;5038639;28;20036;-81
2023/07/11 08:32:38;;;;;;;6.03;2.95;;;28.90;74.40;;;;;;5039964;28;20020;-78
2023/07/11 08:35:05;;;;;;;7.22;2.72;;;28.90;70.20;;;;;;5036559;28;20037;-78
2023/07/11 08:37:31;;;;;;;6.00;2.95;;;29.00;70.10;;;;;;5041108;28;20033;-78
2023/07/11 08:39:56;;;;;;;6.50;2.67;;;29.20;69.80;;;;;;5040751;28;20428;-81
2023/07/11 08:42:32;;;;;;;6.32;3.33;;;29.30;68.70;;;;;;5038675;28;20060;-79
2023/07/11 08:45:20;;;;;;;12.93;3.15;;;29.50;69.50;;;;;;5041606;28;20078;-79
2023/07/11 08:48:11;;;;;;;4.70;3.20;;;29.60;67.40;;;;;;5041065;28;20051;-78
2023/07/11 08:51:06;;;;;;;6.82;3.03;;;30.10;68.40;;;;;;5040962;28;20170;-78
2023/07/11 08:53:38;;;;;;;6.78;3.42;;;30.00;66.50;;;;;;5033834;28;20130;-78
2023/07/11 08:56:20;;;;;;;9.52;2.92;;;30.00;66.70;;;;;;5039676;28;20032;-80
2023/07/11 08:58:49;;;;;;;5.85;3.25;;;30.20;67.20;;;;;;5039922;28;20045;-78
2023/07/11 09:01:53;;;;;;;3.05;2.75;;;30.60;66.20;;;;;;5041160;28;20054;-79
2023/07/11 09:04:26;;;;;;;4.82;2.85;;;30.90;64.30;;;;;;5036981;28;20037;-79
2023/07/11 09:06:56;;;;;;;5.68;2.63;;;30.90;61.80;;;;;;5040931;28;20448;-78
2023/07/11 09:09:23;;;;;;;11.68;3.05;;;30.60;62.10;;;;;;5056735;28;20108;-81
2023/07/11 09:12:10;;;;;;;7.13;3.22;;;30.80;62.30;;;;;;5040076;28;20100;-81
2023/07/11 09:14:51;;;;;;;5.35;2.95;;;30.90;62.30;;;;;;5057547;28;20056;-80
2023/07/11 09:17:22;;;;;;;3.85;3.30;;;30.80;60.90;;;;;;5038856;28;20037;-81
2023/07/11 09:20:05;;;;;;;8.48;3.05;;;31.10;61.10;;;;;;5061332;28;20021;-81
2023/07/11 09:23:01;;;;;;;3.75;3.38;;;31.10;60.00;;;;;;5038137;28;20501;-82
2023/07/11 09:25:37;;;;;;;7.35;3.20;;;31.30;59.80;;;;;;5038666;28;20038;-81
2023/07/11 09:28:21;;;;;;;5.97;3.10;;;31.20;59.40;;;;;;5039069;28;20032;-78
2023/07/11 09:30:54;;;;;;;3.95;2.92;;;31.00;58.20;;;;;;5038757;28;20033;-82
2023/07/11 09:33:40;;;;;;;5.72;2.95;;;30.90;60.00;;;;;;5041779;28;20025;-81
2023/07/11 09:36:20;;;;;;;7.05;3.08;;;30.70;60.50;;;;;;5038389;28;20052;-80
2023/07/11 09:38:53;;;;;;;7.05;3.08;;;30.40;60.40;;;;;;5054279;28;20124;-81
2023/07/11 09:41:45;;;;;;;5.35;2.90;;;30.40;61.90;;;;;;5042011;28;20391;-81
2023/07/11 09:44:11;;;;;;;6.15;3.05;;;30.30;62.20;;;;;;5040004;28;20028;-80
2023/07/11 09:46:37;;;;;;;9.07;3.22;;;30.30;62.10;;;;;;5040221;28;20025;-80
2023/07/11 09:49:07;;;;;;;5.30;2.70;;;30.40;61.60;;;;;;5037895;28;20100;-80
2023/07/11 09:51:41;;;;;;;5.25;3.10;;;30.90;61.70;;;;;;5038658;28;20025;-81
2023/07/11 09:54:22;;;;;;;7.78;2.92;;;31.10;61.50;;;;;;5036486;28;20017;-81
2023/07/11 09:56:50;;;;;;;5.10;2.88;;;31.40;59.50;;;;;;5040292;28;20086;-81
2023/07/11 09:59:17;;;;;;;5.47;3.13;;;31.60;59.20;;;;;;5039509;28;20029;-78
2023/07/11 10:01:43;;;;;;;6.75;3.08;;;31.60;59.00;;;;;;5038363;28;20021;-81
2023/07/11 10:04:15;;;;;;;8.02;2.95;;;31.80;58.20;;;;;;5039697;28;20060;-81
2023/07/11 10:07:03;;;;;;;4.00;2.70;;;31.80;57.40;;;;;;5038602;28;20606;-78
2023/07/11 10:09:36;;;;;;;3.45;2.70;;;31.30;55.80;;;;;;5039624;28;20033;-82
2023/07/11 10:12:14;;;;;;;2.63;2.40;;;31.30;55.80;;;;;;5039721;28;20059;-82
2023/07/11 10:14:43;;;;;;;5.55;2.67;;;31.70;55.40;;;;;;5037333;28;20612;-81
2023/07/11 10:17:31;;;;;;;5.60;2.80;;;32.10;54.60;;;;;;5038731;28;20033;-79
2023/07/11 10:19:59;;;;;;;9.10;2.75;;;32.10;53.30;;;;;;5046880;28;20025;-80
2023/07/11 10:22:28;;;;;;;5.40;2.25;;;32.20;53.70;;;;;;5057200;28;20172;-76
2023/07/11 10:25:16;;;;;;;6.95;2.83;;;32.50;53.10;;;;;;5042454;28;20028;-78
2023/07/11 10:27:46;;;;;;;5.63;2.80;;;32.70;53.20;;;;;;5055297;28;20381;-80
2023/07/11 10:30:27;;;;;;;8.48;3.17;;;32.20;52.50;;;;;;5037202;28;20029;-81
2023/07/11 10:32:58;;;;;;;8.43;3.08;;;32.20;53.20;;;;;;5053570;28;20044;-82
2023/07/11 10:35:27;;;;;;;4.95;2.83;;;32.30;54.50;;;;;;5036548;28;20024;-82
2023/07/11 10:38:01;;;;;;;9.38;3.00;;;32.20;53.60;;;;;;5055551;28;20029;-80
2023/07/11 10:40:30;;;;;;;3.53;2.30;;;32.60;54.30;;;;;;5045096;28;20023;-82
2023/07/11 10:43:21;;;;;;;3.10;2.75;;;32.70;54.80;;;;;;5040539;28;20115;-78
2023/07/11 10:45:50;;;;;;;4.88;3.20;;;32.70;52.30;;;;;;5035220;28;20020;-80
2023/07/11 10:48:34;;;;;;;6.45;3.08;;;33.20;52.80;;;;;;5039706;28;20037;-78
2023/07/11 10:51:14;;;;;;;13.00;4.15;;;33.50;52.30;;;;;;5058004;28;20379;-81
2023/07/11 10:54:03;;;;;;;7.53;2.90;;;34.00;51.70;;;;;;5046140;28;20090;-82
2023/07/11 10:56:39;;;;;;;10.07;3.05;;;34.20;51.80;;;;;;5042192;28;20029;-81
2023/07/11 10:59:04;;;;;;;5.72;3.13;;;34.50;50.40;;;;;;5041842;28;20448;-81
2023/07/11 11:01:39;;;;;;;13.43;3.45;;;34.00;50.60;;;;;;5040569;28;20025;-78
2023/07/11 11:04:33;;;;;;;8.50;2.88;;;33.50;51.90;;;;;;5020211;28;20527;-80
2023/07/11 11:07:23;;;;;;;7.82;3.17;;;33.60;51.50;;;;;;5019703;28;20159;-82
2023/07/11 11:10:26;;;;;;;5.22;2.90;;;33.60;51.30;;;;;;5038480;28;20029;-82
2023/07/11 11:13:10;;;;;;;6.85;2.88;;;33.40;51.80;;;;;;5023468;28;20122;-78
2023/07/11 11:15:42;;;;;;;9.52;3.50;;;33.10;51.90;;;;;;5021959;28;20034;-79
2023/07/11 11:18:17;;;;;;;6.53;2.83;;;33.40;51.50;;;;;;5053323;28;20046;-80
2023/07/11 11:21:04;;;;;;;8.75;3.13;;;33.60;51.20;;;;;;5028969;28;20554;-79
2023/07/11 11:23:42;;;;;;;10.73;2.40;;;33.30;51.50;;;;;;5023203;28;20037;-79
2023/07/11 11:26:42;;;;;;;7.35;3.20;;;33.00;51.50;;;;;;5022532;28;20026;-80
2023/07/11 11:29:36;;;;;;;4.53;3.03;;;32.80;51.30;;;;;;5022864;28;20044;-78
2023/07/11 11:32:02;;;;;;;5.68;2.75;;;32.90;51.80;;;;;;5022346;28;20022;-79
2023/07/11 11:34:44;;;;;;;11.10;2.92;;;32.50;50.40;;;;;;5019847;28;20090;-78
2023/07/11 11:37:42;;;;;;;10.57;3.00;;;32.30;52.00;;;;;;5019847;28;20025;-79
2023/07/11 11:40:20;;;;;;;3.95;2.38;;;32.40;51.20;;;;;;5017571;28;20061;-79
2023/07/11 11:42:50;;;;;;;6.90;2.42;;;32.40;51.60;;;;;;5018786;28;20029;-79
2023/07/11 11:45:21;;;;;;;4.50;2.65;;;32.60;52.00;;;;;;5021250;28;20033;-80
2023/07/11 11:47:52;;;;;;;6.13;2.80;;;32.80;51.90;;;;;;5035938;28;20029;-78
2023/07/11 11:50:21;;;;;;;4.25;2.72;;;32.80;51.50;;;;;;5020216;28;20569;-79
2023/07/11 11:53:15;;;;;;;8.45;2.70;;;32.90;51.70;;;;;;5021054;28;20215;-79
2023/07/11 11:55:51;;;;;;;9.70;3.08;;;33.30;51.10;;;;;;5018914;28;20025;-78
2023/07/11 11:58:19;;;;;;;5.60;3.00;;;33.40;51.10;;;;;;5017827;28;20042;-79
2023/07/11 12:00:49;;;;;;;3.33;2.97;;;33.80;51.90;;;;;;5021299;28;21026;-78
2023/07/11 12:03:26;;;;;;;7.40;2.95;;;33.90;49.90;;;;;;5036966;28;20052;-78
2023/07/11 12:05:53;;;;;;;7.75;2.92;;;33.80;50.30;;;;;;5022614;28;20013;-78
2023/07/11 12:08:25;;;;;;;6.15;3.10;;;34.00;50.50;;;;;;5020068;28;20029;-78
2023/07/11 12:11:18;;;;;;;5.83;2.50;;;33.90;50.10;;;;;;5023794;28;20057;-79
2023/07/11 12:14:12;;;;;;;6.50;2.45;;;33.30;50.90;;;;;;5016049;28;20133;-80
2023/07/11 12:16:41;;;;;;;6.18;2.80;;;33.10;51.30;;;;;;5020120;28;20036;-78
2023/07/11 12:19:30;;;;;;;8.73;3.10;;;33.10;51.50;;;;;;5020393;28;20040;-78
2023/07/11 12:22:04;;;;;;;10.05;3.10;;;33.30;51.60;;;;;;5035459;28;20026;-80
2023/07/11 12:24:33;;;;;;;6.85;2.83;;;33.40;51.00;;;;;;5022511;28;20057;-78
2023/07/11 12:27:17;;;;;;;8.25;2.90;;;33.60;51.40;;;;;;5022270;28;20025;-79
2023/07/11 12:29:53;;;;;;;8.07;3.15;;;33.70;50.70;;;;;;5019933;28;20032;-79
2023/07/11 12:32:31;;;;;;;4.88;2.95;;;34.20;50.00;;;;;;5021409;28;20143;-79
2023/07/11 12:35:19;;;;;;;3.35;2.95;;;33.80;50.10;;;;;;5035275;28;20025;-79
2023/07/11 12:38:00;;;;;;;5.07;2.75;;;33.90;50.00;;;;;;5037145;28;20491;-80
2023/07/11 12:40:48;;;;;;;4.07;2.50;;;33.60;49.50;;;;;;5014992;28;20619;-78
2023/07/11 12:43:17;;;;;;;6.55;2.40;;;33.70;50.40;;;;;;5023098;28;21007;-79
2023/07/11 12:45:47;;;;;;;6.07;2.47;;;33.90;49.20;;;;;;5017390;28;20431;-80
2023/07/11 12:48:32;;;;;;;6.82;2.33;;;33.80;49.20;;;;;;5019638;28;20121;-79
2023/07/11 12:51:04;;;;;;;4.53;2.47;;;34.00;50.50;;;;;;5018663;28;20021;-80
2023/07/11 12:53:34;;;;;;;3.70;2.90;;;34.20;49.80;;;;;;5021173;28;20038;-79
2023/07/11 12:56:00;;;;;;;4.70;2.65;;;34.20;49.20;;;;;;5021303;28;20022;-80
2023/07/11 12:58:28;;;;;;;3.97;2.45;;;34.00;49.10;;;;;;5020139;28;20128;-79
2023/07/11 13:00:58;;;;;;;4.72;2.85;;;33.90;49.10;;;;;;5032434;28;20619;-79
2023/07/11 13:03:31;;;;;;;2.72;2.42;;;33.70;49.40;;;;;;5020190;28;20419;-78